Stone Creek, Ohio
Current Conditions -  °F | °C
As of 5:53 PM on Monday 20 Oct 2014 (Local Time) from KPHD Reporting Station
Light Rain Light Rain  
Wind Chill: 52°   Ceiling: 5500
Heat Index: 52°   Visibility: 10mi
Dew Point: 49°   Wind: 5mph
Humidity: 89%   Direction: 140°SE
Pressure: 29.87"   Gusts: NA
Location:  40.4°N, 81.56°W
Report Text: KPHD 202153Z AUTO 14004KT 10SM -RA OVC055 11/09 A2987 RMK AO2 SLP117 P0006 T01110094
Loading
Personal Weather Stations






























Interactive Weather Map
Tropical Storm Tracking
New forecast layout! Learn more

10-Day Weather Forecast

Advertisements
Track Severe Weather on mobile